sensor_id;sensor_type;location;lat;lon;timestamp;temperature;humidity
18597;DHT22;9428;50.950;6.912;2023-02-02T00:02:45;8.00;99.90
18597;DHT22;9428;50.950;6.912;2023-02-02T00:05:33;8.20;99.90
18597;DHT22;9428;50.950;6.912;2023-02-02T00:08:21;8.10;99.90
18597;DHT22;9428;50.950;6.912;2023-02-02T00:11:08;8.10;99.90
18597;DHT22;9428;50.950;6.912;2023-02-02T00:13:57;8.10;99.90
18597;DHT22;9428;50.950;6.912;2023-02-02T00:16:46;8.20;99.90
18597;DHT22;9428;50.950;6.912;2023-02-02T00:19:34;8.00;99.90
18597;DHT22;9428;50.950;6.912;2023-02-02T00:22:21;7.90;99.90
18597;DHT22;9428;50.950;6.912;2023-02-02T00:25:09;8.70;99.90
18597;DHT22;9428;50.950;6.912;2023-02-02T00:27:56;7.90;99.90
18597;DHT22;9428;50.950;6.912;2023-02-02T00:30:45;7.90;99.90
18597;DHT22;9428;50.950;6.912;2023-02-02T00:33:32;8.00;99.90
18597;DHT22;9428;50.950;6.912;2023-02-02T00:36:20;7.90;99.90
18597;DHT22;9428;50.950;6.912;2023-02-02T00:39:07;8.40;99.90
18597;DHT22;9428;50.950;6.912;2023-02-02T00:41:55;8.00;99.90
18597;DHT22;9428;50.950;6.912;2023-02-02T00:44:42;8.00;99.90
18597;DHT22;9428;50.950;6.912;2023-02-02T00:47:48;8.10;99.90
18597;DHT22;9428;50.950;6.912;2023-02-02T00:50:36;8.00;99.90
18597;DHT22;9428;50.950;6.912;2023-02-02T00:53:23;8.00;99.90
18597;DHT22;9428;50.950;6.912;2023-02-02T00:56:10;8.00;99.90
18597;DHT22;9428;50.950;6.912;2023-02-02T00:58:57;8.00;99.90
18597;DHT22;9428;50.950;6.912;2023-02-02T01:01:45;8.00;99.90
18597;DHT22;9428;50.950;6.912;2023-02-02T01:04:33;8.00;99.90
18597;DHT22;9428;50.950;6.912;2023-02-02T01:07:21;8.00;99.90
18597;DHT22;9428;50.950;6.912;2023-02-02T01:10:12;8.00;99.90
18597;DHT22;9428;50.950;6.912;2023-02-02T01:12:59;8.00;99.90
18597;DHT22;9428;50.950;6.912;2023-02-02T01:15:47;8.00;99.90
18597;DHT22;9428;50.950;6.912;2023-02-02T01:18:34;8.00;99.90
18597;DHT22;9428;50.950;6.912;2023-02-02T01:21:22;8.10;99.90
18597;DHT22;9428;50.950;6.912;2023-02-02T01:24:10;8.10;99.90
18597;DHT22;9428;50.950;6.912;2023-02-02T01:26:57;8.10;99.90
18597;DHT22;9428;50.950;6.912;2023-02-02T01:29:44;8.10;99.90
18597;DHT22;9428;50.950;6.912;2023-02-02T01:32:31;8.00;99.90
18597;DHT22;9428;50.950;6.912;2023-02-02T01:35:19;8.50;99.90
18597;DHT22;9428;50.950;6.912;2023-02-02T01:38:07;8.00;99.90
18597;DHT22;9428;50.950;6.912;2023-02-02T01:40:55;8.00;99.90
18597;DHT22;9428;50.950;6.912;2023-02-02T01:43:52;7.90;99.90
18597;DHT22;9428;50.950;6.912;2023-02-02T01:46:39;7.80;99.90
18597;DHT22;9428;50.950;6.912;2023-02-02T01:49:27;7.80;99.90
18597;DHT22;9428;50.950;6.912;2023-02-02T01:52:15;7.70;99.90
18597;DHT22;9428;50.950;6.912;2023-02-02T01:55:09;7.70;99.90
18597;DHT22;9428;50.950;6.912;2023-02-02T01:58:01;7.60;99.90
18597;DHT22;9428;50.950;6.912;2023-02-02T02:00:50;7.70;99.90
18597;DHT22;9428;50.950;6.912;2023-02-02T02:03:37;7.40;99.90
18597;DHT22;9428;50.950;6.912;2023-02-02T02:06:25;7.70;99.90
18597;DHT22;9428;50.950;6.912;2023-02-02T02:09:14;7.80;99.90
18597;DHT22;9428;50.950;6.912;2023-02-02T02:12:05;7.80;99.90
18597;DHT22;9428;50.950;6.912;2023-02-02T02:14:58;7.90;99.90
18597;DHT22;9428;50.950;6.912;2023-02-02T02:18:11;7.90;99.90
18597;DHT22;9428;50.950;6.912;2023-02-02T02:21:33;7.90;99.90
18597;DHT22;9428;50.950;6.912;2023-02-02T02:25:11;7.90;99.90
18597;DHT22;9428;50.950;6.912;2023-02-02T02:28:50;7.90;99.90
18597;DHT22;9428;50.950;6.912;2023-02-02T02:32:00;7.90;99.90
18597;DHT22;9428;50.950;6.912;2023-02-02T02:34:54;7.80;99.90
18597;DHT22;9428;50.950;6.912;2023-02-02T02:37:50;7.90;99.90
18597;DHT22;9428;50.950;6.912;2023-02-02T02:40:43;7.90;99.90
18597;DHT22;9428;50.950;6.912;2023-02-02T02:43:34;7.90;99.90
18597;DHT22;9428;50.950;6.912;2023-02-02T02:46:23;7.90;99.90
18597;DHT22;9428;50.950;6.912;2023-02-02T02:49:13;7.90;99.90
18597;DHT22;9428;50.950;6.912;2023-02-02T02:52:00;7.90;99.90
18597;DHT22;9428;50.950;6.912;2023-02-02T02:54:50;7.90;99.90
18597;DHT22;9428;50.950;6.912;2023-02-02T02:57:57;7.90;99.90
18597;DHT22;9428;50.950;6.912;2023-02-02T03:00:55;8.00;99.90
18597;DHT22;9428;50.950;6.912;2023-02-02T03:03:52;8.00;99.90
18597;DHT22;9428;50.950;6.912;2023-02-02T03:06:49;7.90;99.90
18597;DHT22;9428;50.950;6.912;2023-02-02T03:09:41;8.70;99.90
18597;DHT22;9428;50.950;6.912;2023-02-02T03:12:29;8.00;99.90
18597;DHT22;9428;50.950;6.912;2023-02-02T03:15:17;8.00;99.90
18597;DHT22;9428;50.950;6.912;2023-02-02T03:18:05;8.00;99.90
18597;DHT22;9428;50.950;6.912;2023-02-02T03:20:52;7.90;99.90
18597;DHT22;9428;50.950;6.912;2023-02-02T03:23:41;7.90;99.90
18597;DHT22;9428;50.950;6.912;2023-02-02T03:26:28;7.90;99.90
18597;DHT22;9428;50.950;6.912;2023-02-02T03:29:16;7.20;99.90
18597;DHT22;9428;50.950;6.912;2023-02-02T03:32:04;7.90;99.90
18597;DHT22;9428;50.950;6.912;2023-02-02T03:34:51;7.80;99.90
18597;DHT22;9428;50.950;6.912;2023-02-02T03:37:38;7.80;99.90
18597;DHT22;9428;50.950;6.912;2023-02-02T03:40:28;7.90;99.90
18597;DHT22;9428;50.950;6.912;2023-02-02T03:43:19;7.80;99.90
18597;DHT22;9428;50.950;6.912;2023-02-02T03:46:06;7.80;99.90
18597;DHT22;9428;50.950;6.912;2023-02-02T03:48:54;7.80;99.90
18597;DHT22;9428;50.950;6.912;2023-02-02T03:51:41;7.90;99.90
18597;DHT22;9428;50.950;6.912;2023-02-02T03:54:29;7.80;99.90
18597;DHT22;9428;50.950;6.912;2023-02-02T03:57:17;7.90;99.90
18597;DHT22;9428;50.950;6.912;2023-02-02T04:00:06;7.80;99.90
18597;DHT22;9428;50.950;6.912;2023-02-02T04:02:53;7.80;99.90
18597;DHT22;9428;50.950;6.912;2023-02-02T04:05:40;7.90;99.90
18597;DHT22;9428;50.950;6.912;2023-02-02T04:08:28;7.80;99.90
18597;DHT22;9428;50.950;6.912;2023-02-02T04:11:16;7.80;99.90
18597;DHT22;9428;50.950;6.912;2023-02-02T04:14:05;7.80;99.90
18597;DHT22;9428;50.950;6.912;2023-02-02T04:16:52;7.80;99.90
18597;DHT22;9428;50.950;6.912;2023-02-02T04:19:39;7.80;99.90
18597;DHT22;9428;50.950;6.912;2023-02-02T04:22:27;7.80;99.90
18597;DHT22;9428;50.950;6.912;2023-02-02T04:25:14;7.80;99.90
18597;DHT22;9428;50.950;6.912;2023-02-02T04:28:01;7.80;99.90
18597;DHT22;9428;50.950;6.912;2023-02-02T04:30:50;7.80;99.90
18597;DHT22;9428;50.950;6.912;2023-02-02T04:33:37;7.70;99.90
18597;DHT22;9428;50.950;6.912;2023-02-02T04:36:25;7.70;99.90
18597;DHT22;9428;50.950;6.912;2023-02-02T04:39:12;8.10;99.90
18597;DHT22;9428;50.950;6.912;2023-02-02T04:42:00;7.70;99.90
18597;DHT22;9428;50.950;6.912;2023-02-02T04:44:47;7.70;99.90
18597;DHT22;9428;50.950;6.912;2023-02-02T04:47:36;7.60;99.90
18597;DHT22;9428;50.950;6.912;2023-02-02T04:50:23;7.70;99.90
18597;DHT22;9428;50.950;6.912;2023-02-02T04:53:10;7.60;99.90
18597;DHT22;9428;50.950;6.912;2023-02-02T04:56:04;7.60;99.90
18597;DHT22;9428;50.950;6.912;2023-02-02T04:58:52;7.60;99.90
18597;DHT22;9428;50.950;6.912;2023-02-02T05:01:40;7.60;99.90
18597;DHT22;9428;50.950;6.912;2023-02-02T05:04:29;7.60;99.90
18597;DHT22;9428;50.950;6.912;2023-02-02T05:07:16;7.60;99.90
18597;DHT22;9428;50.950;6.912;2023-02-02T05:10:04;7.60;99.90
18597;DHT22;9428;50.950;6.912;2023-02-02T05:12:51;7.60;99.90
18597;DHT22;9428;50.950;6.912;2023-02-02T05:15:39;7.60;99.90
18597;DHT22;9428;50.950;6.912;2023-02-02T05:18:26;7.60;99.90
18597;DHT22;9428;50.950;6.912;2023-02-02T05:21:15;7.60;99.90
18597;DHT22;9428;50.950;6.912;2023-02-02T05:24:02;7.60;99.90
18597;DHT22;9428;50.950;6.912;2023-02-02T05:26:49;7.60;99.90
18597;DHT22;9428;50.950;6.912;2023-02-02T05:29:38;7.10;99.90
18597;DHT22;9428;50.950;6.912;2023-02-02T05:32:25;7.60;99.90
18597;DHT22;9428;50.950;6.912;2023-02-02T05:35:13;7.60;99.90
18597;DHT22;9428;50.950;6.912;2023-02-02T05:38:02;7.70;99.90
18597;DHT22;9428;50.950;6.912;2023-02-02T05:40:49;7.60;99.90
18597;DHT22;9428;50.950;6.912;2023-02-02T05:43:37;7.60;99.90
18597;DHT22;9428;50.950;6.912;2023-02-02T05:46:24;7.60;99.90
18597;DHT22;9428;50.950;6.912;2023-02-02T05:49:12;7.60;99.90
18597;DHT22;9428;50.950;6.912;2023-02-02T05:52:00;7.60;99.90
18597;DHT22;9428;50.950;6.912;2023-02-02T05:54:49;7.50;99.90
18597;DHT22;9428;50.950;6.912;2023-02-02T05:57:36;7.50;99.90
18597;DHT22;9428;50.950;6.912;2023-02-02T06:00:23;7.70;99.90
18597;DHT22;9428;50.950;6.912;2023-02-02T06:03:11;7.60;99.90
18597;DHT22;9428;50.950;6.912;2023-02-02T06:05:58;7.60;99.90
18597;DHT22;9428;50.950;6.912;2023-02-02T06:08:46;7.60;99.90
18597;DHT22;9428;50.950;6.912;2023-02-02T06:11:34;7.60;99.90
18597;DHT22;9428;50.950;6.912;2023-02-02T06:14:22;7.50;99.90
18597;DHT22;9428;50.950;6.912;2023-02-02T06:17:09;7.60;99.90
18597;DHT22;9428;50.950;6.912;2023-02-02T06:19:56;7.60;99.90
18597;DHT22;9428;50.950;6.912;2023-02-02T06:22:43;7.60;99.90
18597;DHT22;9428;50.950;6.912;2023-02-02T06:25:31;7.60;99.90
18597;DHT22;9428;50.950;6.912;2023-02-02T06:28:20;7.60;99.90
18597;DHT22;9428;50.950;6.912;2023-02-02T06:31:09;7.60;99.90
18597;DHT22;9428;50.950;6.912;2023-02-02T06:33:57;7.70;99.90
18597;DHT22;9428;50.950;6.912;2023-02-02T06:36:44;7.70;99.90
18597;DHT22;9428;50.950;6.912;2023-02-02T06:39:31;7.70;99.90
18597;DHT22;9428;50.950;6.912;2023-02-02T06:42:19;7.70;99.90
18597;DHT22;9428;50.950;6.912;2023-02-02T06:45:09;7.70;99.90
18597;DHT22;9428;50.950;6.912;2023-02-02T06:47:58;7.80;99.90
18597;DHT22;9428;50.950;6.912;2023-02-02T06:50:48;7.70;99.90
18597;DHT22;9428;50.950;6.912;2023-02-02T06:53:37;7.70;99.90
18597;DHT22;9428;50.950;6.912;2023-02-02T06:56:24;7.70;99.90
18597;DHT22;9428;50.950;6.912;2023-02-02T06:59:11;7.70;99.90
18597;DHT22;9428;50.950;6.912;2023-02-02T07:01:59;8.10;99.90
18597;DHT22;9428;50.950;6.912;2023-02-02T07:04:47;7.70;99.90
18597;DHT22;9428;50.950;6.912;2023-02-02T07:07:34;7.70;99.90
18597;DHT22;9428;50.950;6.912;2023-02-02T07:10:21;7.70;99.90
18597;DHT22;9428;50.950;6.912;2023-02-02T07:13:09;7.70;99.90
18597;DHT22;9428;50.950;6.912;2023-02-02T07:15:56;7.80;99.90
18597;DHT22;9428;50.950;6.912;2023-02-02T07:18:47;7.80;99.90
18597;DHT22;9428;50.950;6.912;2023-02-02T07:21:34;8.10;99.90
18597;DHT22;9428;50.950;6.912;2023-02-02T07:24:21;7.80;99.90
18597;DHT22;9428;50.950;6.912;2023-02-02T07:27:08;7.70;99.90
18597;DHT22;9428;50.950;6.912;2023-02-02T07:29:56;7.90;99.90
18597;DHT22;9428;50.950;6.912;2023-02-02T07:32:46;7.80;99.90
18597;DHT22;9428;50.950;6.912;2023-02-02T07:35:34;7.80;99.90
18597;DHT22;9428;50.950;6.912;2023-02-02T07:38:22;7.80;99.90
18597;DHT22;9428;50.950;6.912;2023-02-02T07:41:09;7.90;99.90
18597;DHT22;9428;50.950;6.912;2023-02-02T07:43:56;7.80;99.90
18597;DHT22;9428;50.950;6.912;2023-02-02T07:46:44;7.80;99.90
18597;DHT22;9428;50.950;6.912;2023-02-02T07:49:32;7.80;99.90
18597;DHT22;9428;50.950;6.912;2023-02-02T07:52:20;7.90;99.90
18597;DHT22;9428;50.950;6.912;2023-02-02T07:55:08;7.90;99.90
18597;DHT22;9428;50.950;6.912;2023-02-02T07:57:56;7.80;99.90
18597;DHT22;9428;50.950;6.912;2023-02-02T08:00:44;7.90;99.90
18597;DHT22;9428;50.950;6.912;2023-02-02T08:03:31;7.80;99.90
18597;DHT22;9428;50.950;6.912;2023-02-02T08:06:20;7.80;99.90
18597;DHT22;9428;50.950;6.912;2023-02-02T08:09:09;7.80;99.90
18597;DHT22;9428;50.950;6.912;2023-02-02T08:11:56;7.70;99.90
18597;DHT22;9428;50.950;6.912;2023-02-02T08:14:46;7.80;99.90
18597;DHT22;9428;50.950;6.912;2023-02-02T08:17:33;7.80;99.90
18597;DHT22;9428;50.950;6.912;2023-02-02T08:20:22;7.70;99.90
18597;DHT22;9428;50.950;6.912;2023-02-02T08:23:09;7.70;99.90
18597;DHT22;9428;50.950;6.912;2023-02-02T08:26:07;7.70;99.90
18597;DHT22;9428;50.950;6.912;2023-02-02T08:28:56;7.70;99.90
18597;DHT22;9428;50.950;6.912;2023-02-02T08:31:44;7.70;99.90
18597;DHT22;9428;50.950;6.912;2023-02-02T08:34:31;7.70;99.90
18597;DHT22;9428;50.950;6.912;2023-02-02T08:37:21;7.70;99.90
18597;DHT22;9428;50.950;6.912;2023-02-02T08:40:10;7.70;99.90
18597;DHT22;9428;50.950;6.912;2023-02-02T08:42:59;7.70;99.90
18597;DHT22;9428;50.950;6.912;2023-02-02T08:45:46;7.70;99.90
18597;DHT22;9428;50.950;6.912;2023-02-02T08:48:34;7.70;99.90
18597;DHT22;9428;50.950;6.912;2023-02-02T08:51:22;7.80;99.90
18597;DHT22;9428;50.950;6.912;2023-02-02T08:54:09;7.80;99.90
18597;DHT22;9428;50.950;6.912;2023-02-02T08:56:56;7.80;99.90
18597;DHT22;9428;50.950;6.912;2023-02-02T08:59:45;7.90;99.90
18597;DHT22;9428;50.950;6.912;2023-02-02T09:02:32;7.90;99.90
18597;DHT22;9428;50.950;6.912;2023-02-02T09:05:19;7.80;99.90
18597;DHT22;9428;50.950;6.912;2023-02-02T09:08:07;7.90;99.90
18597;DHT22;9428;50.950;6.912;2023-02-02T09:10:54;7.90;99.90
18597;DHT22;9428;50.950;6.912;2023-02-02T09:13:42;7.90;99.90
18597;DHT22;9428;50.950;6.912;2023-02-02T09:16:33;7.90;99.90
18597;DHT22;9428;50.950;6.912;2023-02-02T09:19:20;8.00;99.90
18597;DHT22;9428;50.950;6.912;2023-02-02T09:22:07;8.00;99.90
18597;DHT22;9428;50.950;6.912;2023-02-02T09:24:54;8.00;99.90
18597;DHT22;9428;50.950;6.912;2023-02-02T09:27:42;8.00;99.90
18597;DHT22;9428;50.950;6.912;2023-02-02T09:30:29;8.10;99.90
18597;DHT22;9428;50.950;6.912;2023-02-02T09:33:17;8.10;99.90
18597;DHT22;9428;50.950;6.912;2023-02-02T09:36:07;8.00;99.90
18597;DHT22;9428;50.950;6.912;2023-02-02T09:38:54;8.10;99.90
18597;DHT22;9428;50.950;6.912;2023-02-02T09:45:05;8.00;99.90
18597;DHT22;9428;50.950;6.912;2023-02-02T09:47:55;8.00;99.90
18597;DHT22;9428;50.950;6.912;2023-02-02T09:50:48;8.00;99.90
18597;DHT22;9428;50.950;6.912;2023-02-02T09:53:43;8.00;99.90
18597;DHT22;9428;50.950;6.912;2023-02-02T09:56:36;7.90;99.90
18597;DHT22;9428;50.950;6.912;2023-02-02T09:59:28;8.00;99.90
18597;DHT22;9428;50.950;6.912;2023-02-02T10:02:19;8.00;99.90
18597;DHT22;9428;50.950;6.912;2023-02-02T10:05:17;7.90;99.90
18597;DHT22;9428;50.950;6.912;2023-02-02T10:08:15;8.00;99.90
18597;DHT22;9428;50.950;6.912;2023-02-02T10:11:25;8.00;99.90
18597;DHT22;9428;50.950;6.912;2023-02-02T10:14:17;8.40;99.90
18597;DHT22;9428;50.950;6.912;2023-02-02T10:17:22;7.90;99.90
18597;DHT22;9428;50.950;6.912;2023-02-02T10:20:19;8.20;99.90
18597;DHT22;9428;50.950;6.912;2023-02-02T10:23:22;7.90;99.90
18597;DHT22;9428;50.950;6.912;2023-02-02T10:26:16;8.00;99.90
18597;DHT22;9428;50.950;6.912;2023-02-02T10:29:11;8.00;99.90
18597;DHT22;9428;50.950;6.912;2023-02-02T10:32:09;7.90;99.90
18597;DHT22;9428;50.950;6.912;2023-02-02T10:35:18;8.20;99.90
18597;DHT22;9428;50.950;6.912;2023-02-02T10:38:15;8.10;99.90
18597;DHT22;9428;50.950;6.912;2023-02-02T10:41:13;8.00;99.90
18597;DHT22;9428;50.950;6.912;2023-02-02T10:44:15;8.00;99.90
18597;DHT22;9428;50.950;6.912;2023-02-02T10:47:07;8.10;99.90
18597;DHT22;9428;50.950;6.912;2023-02-02T10:50:02;8.10;99.90
18597;DHT22;9428;50.950;6.912;2023-02-02T10:53:00;8.10;99.90
18597;DHT22;9428;50.950;6.912;2023-02-02T10:55:52;8.70;99.90
18597;DHT22;9428;50.950;6.912;2023-02-02T10:58:45;8.20;99.90
18597;DHT22;9428;50.950;6.912;2023-02-02T11:01:36;8.20;99.90
18597;DHT22;9428;50.950;6.912;2023-02-02T11:04:23;8.20;99.90
18597;DHT22;9428;50.950;6.912;2023-02-02T11:07:29;8.30;99.90
18597;DHT22;9428;50.950;6.912;2023-02-02T11:10:16;8.20;99.90
18597;DHT22;9428;50.950;6.912;2023-02-02T11:13:05;8.30;99.90
18597;DHT22;9428;50.950;6.912;2023-02-02T11:16:20;8.30;99.90
18597;DHT22;9428;50.950;6.912;2023-02-02T11:19:22;8.40;99.90
18597;DHT22;9428;50.950;6.912;2023-02-02T11:22:24;8.50;99.90
18597;DHT22;9428;50.950;6.912;2023-02-02T11:25:25;8.30;99.90
18597;DHT22;9428;50.950;6.912;2023-02-02T11:28:18;8.50;99.90
18597;DHT22;9428;50.950;6.912;2023-02-02T11:31:06;8.40;99.90
18597;DHT22;9428;50.950;6.912;2023-02-02T11:34:07;8.50;99.90
18597;DHT22;9428;50.950;6.912;2023-02-02T11:37:01;8.50;99.90
18597;DHT22;9428;50.950;6.912;2023-02-02T11:39:48;8.60;99.90
18597;DHT22;9428;50.950;6.912;2023-02-02T11:42:35;8.10;99.90
18597;DHT22;9428;50.950;6.912;2023-02-02T11:45:28;8.60;99.90
18597;DHT22;9428;50.950;6.912;2023-02-02T11:48:18;8.60;99.90
18597;DHT22;9428;50.950;6.912;2023-02-02T11:51:07;8.60;99.90
18597;DHT22;9428;50.950;6.912;2023-02-02T11:54:02;8.90;99.90
18597;DHT22;9428;50.950;6.912;2023-02-02T11:56:52;8.70;99.90
18597;DHT22;9428;50.950;6.912;2023-02-02T11:59:41;8.60;99.90
18597;DHT22;9428;50.950;6.912;2023-02-02T12:02:29;8.70;99.90
18597;DHT22;9428;50.950;6.912;2023-02-02T12:05:34;8.80;99.90
18597;DHT22;9428;50.950;6.912;2023-02-02T12:08:23;8.70;99.90
18597;DHT22;9428;50.950;6.912;2023-02-02T12:11:20;8.80;99.90
18597;DHT22;9428;50.950;6.912;2023-02-02T12:14:21;8.80;99.90
18597;DHT22;9428;50.950;6.912;2023-02-02T12:17:22;8.80;99.90
18597;DHT22;9428;50.950;6.912;2023-02-02T12:20:29;8.70;99.90
18597;DHT22;9428;50.950;6.912;2023-02-02T12:26:32;9.00;99.90
18597;DHT22;9428;50.950;6.912;2023-02-02T12:29:36;9.30;99.90
18597;DHT22;9428;50.950;6.912;2023-02-02T12:32:42;9.20;99.90
18597;DHT22;9428;50.950;6.912;2023-02-02T12:35:47;8.70;99.90
18597;DHT22;9428;50.950;6.912;2023-02-02T12:38:59;9.10;99.90
18597;DHT22;9428;50.950;6.912;2023-02-02T12:42:14;9.00;99.90
18597;DHT22;9428;50.950;6.912;2023-02-02T12:45:38;9.00;99.90
18597;DHT22;9428;50.950;6.912;2023-02-02T12:48:42;9.10;99.90
18597;DHT22;9428;50.950;6.912;2023-02-02T12:51:41;9.10;99.90
18597;DHT22;9428;50.950;6.912;2023-02-02T12:54:53;9.30;99.90
18597;DHT22;9428;50.950;6.912;2023-02-02T12:57:49;9.30;99.90
18597;DHT22;9428;50.950;6.912;2023-02-02T13:04:10;9.30;99.90
18597;DHT22;9428;50.950;6.912;2023-02-02T13:07:25;9.40;99.90
18597;DHT22;9428;50.950;6.912;2023-02-02T13:10:21;9.30;99.90
18597;DHT22;9428;50.950;6.912;2023-02-02T13:13:13;9.20;99.90
18597;DHT22;9428;50.950;6.912;2023-02-02T13:16:06;9.30;99.90
18597;DHT22;9428;50.950;6.912;2023-02-02T13:18:57;9.30;99.90
18597;DHT22;9428;50.950;6.912;2023-02-02T13:21:47;9.40;99.90
18597;DHT22;9428;50.950;6.912;2023-02-02T13:24:38;9.40;99.90
18597;DHT22;9428;50.950;6.912;2023-02-02T13:27:29;9.50;99.90
18597;DHT22;9428;50.950;6.912;2023-02-02T13:30:26;9.40;99.90
18597;DHT22;9428;50.950;6.912;2023-02-02T13:33:17;9.40;99.90
18597;DHT22;9428;50.950;6.912;2023-02-02T13:36:12;9.50;99.90
18597;DHT22;9428;50.950;6.912;2023-02-02T13:39:11;9.40;99.90
18597;DHT22;9428;50.950;6.912;2023-02-02T13:42:00;9.40;99.90
18597;DHT22;9428;50.950;6.912;2023-02-02T13:44:54;9.60;99.90
18597;DHT22;9428;50.950;6.912;2023-02-02T13:47:44;9.60;99.90
18597;DHT22;9428;50.950;6.912;2023-02-02T13:50:44;9.60;99.90
18597;DHT22;9428;50.950;6.912;2023-02-02T13:53:46;9.50;99.90
18597;DHT22;9428;50.950;6.912;2023-02-02T13:56:38;9.50;99.90
18597;DHT22;9428;50.950;6.912;2023-02-02T13:59:46;9.50;99.90
18597;DHT22;9428;50.950;6.912;2023-02-02T14:02:41;9.40;99.90
18597;DHT22;9428;50.950;6.912;2023-02-02T14:05:31;9.40;99.90
18597;DHT22;9428;50.950;6.912;2023-02-02T14:08:20;9.70;99.90
18597;DHT22;9428;50.950;6.912;2023-02-02T14:11:16;9.50;99.90
18597;DHT22;9428;50.950;6.912;2023-02-02T14:14:08;9.50;99.90
18597;DHT22;9428;50.950;6.912;2023-02-02T14:20:45;9.50;99.90
18597;DHT22;9428;50.950;6.912;2023-02-02T14:23:52;9.40;99.90
18597;DHT22;9428;50.950;6.912;2023-02-02T14:26:42;9.40;99.90
18597;DHT22;9428;50.950;6.912;2023-02-02T14:29:57;9.40;99.90
18597;DHT22;9428;50.950;6.912;2023-02-02T14:32:45;9.50;99.90
18597;DHT22;9428;50.950;6.912;2023-02-02T14:35:54;9.50;99.90
18597;DHT22;9428;50.950;6.912;2023-02-02T14:42:14;9.50;99.90
18597;DHT22;9428;50.950;6.912;2023-02-02T14:45:28;9.50;99.90
18597;DHT22;9428;50.950;6.912;2023-02-02T14:48:17;9.50;99.90
18597;DHT22;9428;50.950;6.912;2023-02-02T14:51:15;9.50;99.90
18597;DHT22;9428;50.950;6.912;2023-02-02T14:54:05;10.40;99.90
18597;DHT22;9428;50.950;6.912;2023-02-02T14:56:57;10.10;99.90
18597;DHT22;9428;50.950;6.912;2023-02-02T14:59:45;9.60;99.90
18597;DHT22;9428;50.950;6.912;2023-02-02T15:02:35;9.50;99.90
18597;DHT22;9428;50.950;6.912;2023-02-02T15:05:40;9.50;99.90
18597;DHT22;9428;50.950;6.912;2023-02-02T15:08:30;9.50;99.90
18597;DHT22;9428;50.950;6.912;2023-02-02T15:11:17;9.50;99.90
18597;DHT22;9428;50.950;6.912;2023-02-02T15:14:15;9.50;99.90
18597;DHT22;9428;50.950;6.912;2023-02-02T15:17:05;9.50;99.90
18597;DHT22;9428;50.950;6.912;2023-02-02T15:19:58;9.50;99.90
18597;DHT22;9428;50.950;6.912;2023-02-02T15:22:55;9.50;99.90
18597;DHT22;9428;50.950;6.912;2023-02-02T15:25:52;9.40;99.90
18597;DHT22;9428;50.950;6.912;2023-02-02T15:28:43;8.90;99.90
18597;DHT22;9428;50.950;6.912;2023-02-02T15:31:35;9.90;99.90
18597;DHT22;9428;50.950;6.912;2023-02-02T15:34:26;9.50;99.90
18597;DHT22;9428;50.950;6.912;2023-02-02T15:37:19;9.50;99.90
18597;DHT22;9428;50.950;6.912;2023-02-02T15:40:12;9.50;99.90
18597;DHT22;9428;50.950;6.912;2023-02-02T15:43:03;9.50;99.90
18597;DHT22;9428;50.950;6.912;2023-02-02T15:45:59;9.80;99.90
18597;DHT22;9428;50.950;6.912;2023-02-02T15:49:13;9.50;99.90
18597;DHT22;9428;50.950;6.912;2023-02-02T15:52:10;9.50;99.90
18597;DHT22;9428;50.950;6.912;2023-02-02T15:54:59;9.50;99.90
18597;DHT22;9428;50.950;6.912;2023-02-02T15:57:46;10.30;99.90
18597;DHT22;9428;50.950;6.912;2023-02-02T16:00:36;9.50;99.90
18597;DHT22;9428;50.950;6.912;2023-02-02T16:03:26;9.50;99.90
18597;DHT22;9428;50.950;6.912;2023-02-02T16:06:17;9.80;99.90
18597;DHT22;9428;50.950;6.912;2023-02-02T16:09:06;9.50;99.90
18597;DHT22;9428;50.950;6.912;2023-02-02T16:11:53;9.50;99.90
18597;DHT22;9428;50.950;6.912;2023-02-02T16:14:41;9.50;99.90
18597;DHT22;9428;50.950;6.912;2023-02-02T16:17:31;9.50;99.90
18597;DHT22;9428;50.950;6.912;2023-02-02T16:20:20;9.50;99.90
18597;DHT22;9428;50.950;6.912;2023-02-02T16:23:14;9.40;99.90
18597;DHT22;9428;50.950;6.912;2023-02-02T16:26:04;9.40;99.90
18597;DHT22;9428;50.950;6.912;2023-02-02T16:28:52;9.40;99.90
18597;DHT22;9428;50.950;6.912;2023-02-02T16:31:40;9.40;99.90
18597;DHT22;9428;50.950;6.912;2023-02-02T16:34:44;9.50;99.90
18597;DHT22;9428;50.950;6.912;2023-02-02T16:37:33;9.50;99.90
18597;DHT22;9428;50.950;6.912;2023-02-02T16:40:25;9.50;99.90
18597;DHT22;9428;50.950;6.912;2023-02-02T16:43:16;9.90;99.90
18597;DHT22;9428;50.950;6.912;2023-02-02T16:46:07;9.50;99.90
18597;DHT22;9428;50.950;6.912;2023-02-02T16:48:56;9.50;99.90
18597;DHT22;9428;50.950;6.912;2023-02-02T16:51:47;9.50;99.90
18597;DHT22;9428;50.950;6.912;2023-02-02T16:54:35;9.50;99.90
18597;DHT22;9428;50.950;6.912;2023-02-02T16:57:25;9.50;99.90
18597;DHT22;9428;50.950;6.912;2023-02-02T17:00:18;9.50;99.90
18597;DHT22;9428;50.950;6.912;2023-02-02T17:03:13;9.50;99.90
18597;DHT22;9428;50.950;6.912;2023-02-02T17:06:01;9.80;99.90
18597;DHT22;9428;50.950;6.912;2023-02-02T17:08:53;9.60;99.90
18597;DHT22;9428;50.950;6.912;2023-02-02T17:11:54;9.70;99.90
18597;DHT22;9428;50.950;6.912;2023-02-02T17:14:50;9.50;99.90
18597;DHT22;9428;50.950;6.912;2023-02-02T17:17:38;9.40;99.90
18597;DHT22;9428;50.950;6.912;2023-02-02T17:20:26;9.40;99.90
18597;DHT22;9428;50.950;6.912;2023-02-02T17:23:16;9.50;99.90
18597;DHT22;9428;50.950;6.912;2023-02-02T17:26:10;9.40;99.90
18597;DHT22;9428;50.950;6.912;2023-02-02T17:28:57;9.30;99.90
18597;DHT22;9428;50.950;6.912;2023-02-02T17:31:45;9.30;99.90
18597;DHT22;9428;50.950;6.912;2023-02-02T17:34:32;9.30;99.90
18597;DHT22;9428;50.950;6.912;2023-02-02T17:37:19;9.30;99.90
18597;DHT22;9428;50.950;6.912;2023-02-02T17:40:11;9.30;99.90
18597;DHT22;9428;50.950;6.912;2023-02-02T17:42:59;9.30;99.90
18597;DHT22;9428;50.950;6.912;2023-02-02T17:45:47;9.70;99.90
18597;DHT22;9428;50.950;6.912;2023-02-02T17:48:35;9.20;99.90
18597;DHT22;9428;50.950;6.912;2023-02-02T17:51:22;9.20;99.90
18597;DHT22;9428;50.950;6.912;2023-02-02T17:54:10;9.20;99.90
18597;DHT22;9428;50.950;6.912;2023-02-02T17:56:57;9.10;99.90
18597;DHT22;9428;50.950;6.912;2023-02-02T17:59:47;9.00;99.90
18597;DHT22;9428;50.950;6.912;2023-02-02T18:02:34;9.00;99.90
18597;DHT22;9428;50.950;6.912;2023-02-02T18:05:22;9.00;99.90
18597;DHT22;9428;50.950;6.912;2023-02-02T18:08:09;8.90;99.90
18597;DHT22;9428;50.950;6.912;2023-02-02T18:10:57;8.80;99.90
18597;DHT22;9428;50.950;6.912;2023-02-02T18:13:45;8.80;99.90
18597;DHT22;9428;50.950;6.912;2023-02-02T18:16:33;8.80;99.90
18597;DHT22;9428;50.950;6.912;2023-02-02T18:19:21;8.70;99.90
18597;DHT22;9428;50.950;6.912;2023-02-02T18:22:08;8.70;99.90
18597;DHT22;9428;50.950;6.912;2023-02-02T18:24:55;8.70;99.90
18597;DHT22;9428;50.950;6.912;2023-02-02T18:27:43;8.70;99.90
18597;DHT22;9428;50.950;6.912;2023-02-02T18:30:31;8.70;99.90
18597;DHT22;9428;50.950;6.912;2023-02-02T18:33:20;9.40;99.90
18597;DHT22;9428;50.950;6.912;2023-02-02T18:36:10;8.60;99.90
18597;DHT22;9428;50.950;6.912;2023-02-02T18:38:58;8.60;99.90
18597;DHT22;9428;50.950;6.912;2023-02-02T18:41:45;8.60;99.90
18597;DHT22;9428;50.950;6.912;2023-02-02T18:44:33;8.60;99.90
18597;DHT22;9428;50.950;6.912;2023-02-02T18:47:21;8.60;99.90
18597;DHT22;9428;50.950;6.912;2023-02-02T18:50:10;8.50;99.90
18597;DHT22;9428;50.950;6.912;2023-02-02T18:52:57;8.60;99.90
18597;DHT22;9428;50.950;6.912;2023-02-02T18:55:45;8.60;99.90
18597;DHT22;9428;50.950;6.912;2023-02-02T18:58:32;8.60;99.90